Terminal Aerodrome Forecast
Issued by NWS Atlanta, GA

Home | Current Version | Previous Version | Text Only | Print | Product List | Glossary On
Versions: 1 2 3 4 5 6 7 8 9 10 11 12 13 14 15 16 17 18 19 20 21 22 23 24 25 26 27 28 29 30 31 32 33 34 35
000
FTUS42 KFFC 042133 AAB
TAFATL
TAF AMD
KATL 042133Z 0422/0524 16006KT P6SM SCT080
     FM050200 13004KT P6SM FEW080
     FM051100 10004KT P6SM FEW250
     FM051700 13008KT P6SM SCT060=

USA.gov is the U.S. government's official web portal to all federal, state and local government web resources and services.